Time;durP1;ratioP1;P1;durP2;ratioP2;P2;SDS_P1;SDS_P2;PMS_P1;PMS_P2;Temp;Humidity;BMP_temperature;BMP_pressure;BME280_temperature;BME280_humidity;BME280_pressure;Samples;Min_cycle;Max_cycle;Signal;HPM_P1;HPM_P2
2021/10/13 00:00:27;;;;;;;12.43;7.97;;;;;;;7.19;80.47;96222.75;1789434;77;21090;-82
2021/10/13 00:02:55;;;;;;;10.13;8.23;;;;;;;7.11;80.34;96224.84;1821062;77;21096;-82
2021/10/13 00:05:21;;;;;;;26.10;14.55;;;;;;;7.07;80.52;96214.52;1799534;76;21138;-82
2021/10/13 00:07:46;;;;;;;11.03;7.85;;;;;;;7.08;80.73;96208.38;1782734;78;21556;-82
2021/10/13 00:10:12;;;;;;;9.58;7.03;;;;;;;7.01;80.26;96213.09;1790586;77;21543;-82
2021/10/13 00:12:38;;;;;;;9.78;6.72;;;;;;;6.91;80.22;96214.05;1790442;77;21021;-82
2021/10/13 00:15:07;;;;;;;10.50;7.75;;;;;;;6.85;80.77;96214.72;1786757;78;21449;-82
2021/10/13 00:17:33;;;;;;;8.73;6.60;;;;;;;6.85;80.83;96210.03;1790400;77;21020;-82
2021/10/13 00:20:02;;;;;;;13.48;8.80;;;;;;;6.78;80.94;96211.15;1775684;77;22125;-82
2021/10/13 00:22:27;;;;;;;9.98;6.92;;;;;;;6.70;81.04;96220.69;1763388;78;21027;-82
2021/10/13 00:24:53;;;;;;;9.80;7.70;;;;;;;6.61;81.20;96221.95;1752424;81;21054;-82
2021/10/13 00:27:18;;;;;;;9.33;7.60;;;;;;;6.56;81.06;96222.94;1763263;80;21095;-82
2021/10/13 00:29:44;;;;;;;12.88;8.90;;;;;;;6.54;81.24;96218.91;1772178;79;21058;-82
2021/10/13 00:32:10;;;;;;;11.22;7.80;;;;;;;6.52;81.21;96215.19;1747418;80;21094;-82
2021/10/13 00:34:36;;;;;;;10.25;7.20;;;;;;;6.52;81.24;96216.97;1768318;79;21137;-82
2021/10/13 00:37:02;;;;;;;9.60;6.53;;;;;;;6.53;81.42;96215.52;1752786;79;21452;-82
2021/10/13 00:39:28;;;;;;;7.83;5.75;;;;;;;6.54;81.46;96206.00;1742411;79;21079;-82
2021/10/13 00:41:55;;;;;;;7.83;5.92;;;;;;;6.59;81.66;96211.48;1761723;77;21053;-82
2021/10/13 00:44:21;;;;;;;8.60;5.45;;;;;;;6.63;81.58;96210.98;1804214;77;21151;-82
2021/10/13 00:46:46;;;;;;;8.18;5.53;;;;;;;6.63;81.42;96208.41;1789375;77;21158;-82
2021/10/13 00:49:12;;;;;;;5.87;4.90;;;;;;;6.57;81.40;96196.15;1769747;77;21609;-82
2021/10/13 00:51:38;;;;;;;7.75;5.50;;;;;;;6.62;81.45;96205.50;1739171;80;21214;-82
2021/10/13 00:54:08;;;;;;;7.75;5.22;;;;;;;6.61;81.47;96206.47;1788876;78;21067;-81
2021/10/13 00:58:59;;;;;;;5.78;4.70;;;;;;;6.66;81.17;96204.69;1776260;79;21052;-82
2021/10/13 01:01:29;;;;;;;5.40;4.22;;;;;;;6.66;81.13;96207.75;1802932;78;21406;-82
2021/10/13 01:04:19;;;;;;;6.35;4.70;;;;;;;6.68;80.97;96202.78;1799142;79;21468;-82
2021/10/13 01:06:53;;;;;;;5.20;4.35;;;;;;;6.68;80.80;96207.13;1776962;78;21091;-82
2021/10/13 01:09:23;;;;;;;7.53;4.40;;;;;;;6.66;80.93;96203.88;1740002;80;21157;-82
2021/10/13 01:12:12;;;;;;;5.50;4.25;;;;;;;6.65;80.75;96212.59;1757128;80;21111;-82
2021/10/13 01:17:37;;;;;;;7.53;5.05;;;;;;;6.63;80.81;96218.73;1774468;79;21068;-82
2021/10/13 01:23:39;;;;;;;5.87;4.58;;;;;;;6.57;80.53;96225.84;1714740;81;21170;-82
2021/10/13 01:29:13;;;;;;;7.35;3.70;;;;;;;6.46;80.83;96230.02;1706726;80;21143;-82
2021/10/13 01:31:44;;;;;;;5.03;4.20;;;;;;;6.38;80.38;96230.02;1758071;79;21063;-82
2021/10/13 01:34:28;;;;;;;6.37;4.67;;;;;;;6.37;80.74;96225.82;1794506;78;21153;-82
2021/10/13 01:37:02;;;;;;;11.70;7.17;;;;;;;6.41;80.90;96228.88;1792363;78;21420;-82
2021/10/13 01:39:27;;;;;;;9.18;4.53;;;;;;;6.39;80.79;96228.23;1736514;81;21200;-82
2021/10/13 01:41:53;;;;;;;9.85;6.03;;;;;;;6.31;80.21;96231.59;1749358;79;21458;-82
2021/10/13 01:44:19;;;;;;;6.55;4.87;;;;;;;6.26;80.45;96235.14;1801633;78;21376;-82
2021/10/13 01:46:45;;;;;;;5.72;3.62;;;;;;;6.24;80.38;96235.79;1817040;78;21092;-82
2021/10/13 01:49:10;;;;;;;5.17;3.60;;;;;;;6.20;80.35;96239.17;1783319;79;21145;-81
2021/10/13 01:51:36;;;;;;;4.80;3.25;;;;;;;6.18;80.47;96236.41;1747966;80;21040;-82
2021/10/13 01:54:02;;;;;;;5.80;3.27;;;;;;;6.18;80.48;96233.38;1790072;77;21082;-82
2021/10/13 01:56:28;;;;;;;4.45;2.95;;;;;;;6.17;80.67;96230.44;1731767;79;21013;-82
2021/10/13 01:58:58;;;;;;;3.72;3.15;;;;;;;6.18;80.86;96235.11;1781053;77;21508;-81
2021/10/13 02:01:27;;;;;;;5.50;3.60;;;;;;;6.18;80.94;96233.83;1788294;77;21390;-81
2021/10/13 02:03:53;;;;;;;3.60;3.12;;;;;;;6.14;80.93;96235.11;1785895;78;21116;-81
2021/10/13 02:06:21;;;;;;;3.70;3.30;;;;;;;6.16;81.19;96240.91;1776499;77;21492;-82
2021/10/13 02:08:47;;;;;;;4.30;3.42;;;;;;;6.21;81.01;96241.27;1767594;79;21063;-81
2021/10/13 02:11:12;;;;;;;4.47;3.47;;;;;;;6.24;80.94;96246.11;1753961;79;21106;-81
2021/10/13 02:13:38;;;;;;;5.12;4.62;;;;;;;6.25;80.79;96246.44;1755486;80;21530;-81
2021/10/13 02:16:04;;;;;;;5.12;4.37;;;;;;;6.25;80.80;96252.89;1742909;80;21053;-81
2021/10/13 02:18:31;;;;;;;5.08;4.15;;;;;;;6.22;80.90;96259.66;1762644;80;21450;-81
2021/10/13 02:20:58;;;;;;;6.37;5.30;;;;;;;6.21;80.80;96258.05;1752533;80;21040;-82
2021/10/13 02:23:26;;;;;;;4.75;3.80;;;;;;;6.17;80.63;96259.30;1705136;80;21439;-81
2021/10/13 02:25:52;;;;;;;4.30;3.87;;;;;;;6.11;80.35;96258.16;1761201;79;21020;-81
2021/10/13 02:28:32;;;;;;;6.50;4.00;;;;;;;6.06;80.34;96272.51;1759937;78;21523;-82
2021/10/13 02:30:57;;;;;;;4.83;4.03;;;;;;;5.99;80.68;96269.72;1769573;77;21064;-81
2021/10/13 02:33:24;;;;;;;5.33;3.83;;;;;;;5.94;80.78;96265.04;1795155;79;21499;-81
2021/10/13 02:35:51;;;;;;;6.12;5.55;;;;;;;5.89;80.92;96276.28;1806668;78;21146;-81
2021/10/13 02:38:17;;;;;;;6.05;5.47;;;;;;;5.85;81.03;96274.14;1818344;76;21120;-82
2021/10/13 02:40:43;;;;;;;9.53;6.08;;;;;;;5.84;81.25;96278.50;1832702;77;21020;-82
2021/10/13 02:43:09;;;;;;;6.67;5.47;;;;;;;5.87;81.32;96281.27;1782485;78;21070;-81
2021/10/13 02:45:39;;;;;;;5.37;4.45;;;;;;;5.83;81.00;96280.75;1809905;78;21051;-81
2021/10/13 02:50:46;;;;;;;7.10;5.10;;;;;;;5.81;81.22;96288.31;1770903;80;21093;-81
2021/10/13 02:53:35;;;;;;;8.28;5.60;;;;;;;5.82;81.19;96285.58;1786779;79;21085;-82
2021/10/13 02:56:08;;;;;;;6.40;4.92;;;;;;;5.80;81.23;96281.55;1825549;77;21491;-81
2021/10/13 02:58:47;;;;;;;5.37;4.15;;;;;;;5.76;81.25;96282.34;1804688;78;21108;-81
2021/10/13 03:01:15;;;;;;;5.53;4.28;;;;;;;5.80;81.21;96283.64;1732954;78;21466;-81
2021/10/13 03:03:51;;;;;;;5.10;3.75;;;;;;;5.83;81.12;96283.81;1734070;81;21252;-82
2021/10/13 03:06:17;;;;;;;4.55;3.60;;;;;;;5.83;81.23;96294.13;1742468;79;21534;-81
2021/10/13 03:08:44;;;;;;;5.62;4.67;;;;;;;5.79;81.48;96294.11;1744193;80;21052;-81
2021/10/13 03:11:10;;;;;;;6.33;4.72;;;;;;;5.67;81.36;96303.39;1735767;80;21141;-82
2021/10/13 03:13:37;;;;;;;7.58;6.33;;;;;;;5.66;81.59;96306.93;1760689;79;21191;-81
2021/10/13 03:16:04;;;;;;;7.15;5.50;;;;;;;5.57;81.40;96304.48;1729562;80;21120;-82
2021/10/13 03:18:31;;;;;;;6.78;5.60;;;;;;;5.43;81.22;96304.06;1791667;78;21456;-82
2021/10/13 03:20:57;;;;;;;6.30;5.30;;;;;;;5.43;81.92;96306.65;1784932;79;21146;-82
2021/10/13 03:23:23;;;;;;;6.67;5.42;;;;;;;5.48;82.34;96311.34;1736831;81;21075;-82
2021/10/13 03:25:51;;;;;;;9.23;8.25;;;;;;;5.50;82.36;96315.05;1776725;77;21399;-82
2021/10/13 03:28:16;;;;;;;10.65;8.08;;;;;;;5.46;81.81;96313.74;1781161;77;21108;-82
2021/10/13 03:30:44;;;;;;;9.03;7.45;;;;;;;5.47;82.11;96314.88;1801211;77;21124;-82
2021/10/13 03:33:11;;;;;;;12.10;7.60;;;;;;;5.55;82.40;96321.87;1800366;78;21118;-82
2021/10/13 03:35:36;;;;;;;10.43;8.63;;;;;;;5.63;82.25;96324.48;1799616;77;21036;-82
2021/10/13 03:38:03;;;;;;;11.10;8.63;;;;;;;5.66;82.37;96324.17;1782020;77;21121;-82
2021/10/13 03:40:30;;;;;;;10.60;8.68;;;;;;;5.69;82.48;96323.41;1811312;78;21108;-82
2021/10/13 03:42:55;;;;;;;9.80;8.80;;;;;;;5.74;82.52;96322.94;1797870;77;20999;-82
2021/10/13 03:45:22;;;;;;;15.32;11.20;;;;;;;5.74;82.40;96330.67;1810292;76;21549;-82
2021/10/13 03:47:48;;;;;;;13.75;11.97;;;;;;;5.76;82.53;96331.33;1769266;78;21041;-81
2021/10/13 03:50:15;;;;;;;14.63;11.38;;;;;;;5.76;82.46;96332.62;1773612;79;21073;-81
2021/10/13 03:52:41;;;;;;;16.75;13.80;;;;;;;5.73;82.36;96336.80;1810160;77;21037;-82
2021/10/13 03:55:10;;;;;;;16.12;13.45;;;;;;;5.72;82.54;96343.72;1782136;79;21147;-81
2021/10/13 03:57:36;;;;;;;16.90;14.90;;;;;;;5.72;82.72;96346.30;1762000;79;21070;-82
2021/10/13 04:00:04;;;;;;;17.50;13.88;;;;;;;5.68;82.83;96351.41;1791830;79;21078;-82
2021/10/13 04:02:31;;;;;;;21.45;15.75;;;;;;;5.59;82.81;96351.05;1749562;80;21154;-82
2021/10/13 04:04:57;;;;;;;19.98;16.57;;;;;;;5.55;82.95;96362.62;1772753;80;21448;-81
2021/10/13 04:07:23;;;;;;;16.25;14.07;;;;;;;5.55;83.10;96359.23;1779237;77;21032;-82
2021/10/13 04:09:48;;;;;;;16.15;14.55;;;;;;;5.58;83.28;96366.19;1763623;78;21610;-81
2021/10/13 04:12:14;;;;;;;16.17;14.03;;;;;;;5.60;83.18;96370.70;1745187;79;21033;-82
2021/10/13 04:14:41;;;;;;;15.60;13.62;;;;;;;5.62;83.29;96369.26;1798539;79;21114;-82
2021/10/13 04:17:06;;;;;;;13.43;11.95;;;;;;;5.59;83.22;96366.51;1804616;77;21086;-82
2021/10/13 04:19:32;;;;;;;15.13;13.53;;;;;;;5.59;83.24;96363.94;1766760;79;21096;-82
2021/10/13 04:21:58;;;;;;;15.85;13.93;;;;;;;5.56;83.06;96368.59;1762227;79;21469;-81
2021/10/13 04:24:24;;;;;;;14.50;13.05;;;;;;;5.57;83.10;96366.34;1760165;79;21138;-81
2021/10/13 04:26:50;;;;;;;15.30;13.70;;;;;;;5.55;82.98;96369.55;1792039;77;21059;-81
2021/10/13 04:29:16;;;;;;;14.43;12.80;;;;;;;5.54;82.98;96373.89;1791212;78;21137;-82
2021/10/13 04:31:41;;;;;;;17.70;15.88;;;;;;;5.49;83.01;96377.38;1780283;78;21445;-81
2021/10/13 04:34:07;;;;;;;17.07;15.00;;;;;;;5.43;82.88;96377.52;1799456;77;21047;-81
2021/10/13 04:36:33;;;;;;;18.15;15.40;;;;;;;5.41;83.11;96379.43;1772475;79;21039;-81
2021/10/13 04:38:59;;;;;;;17.42;14.68;;;;;;;5.42;83.26;96381.53;1838585;76;21026;-81
2021/10/13 04:41:25;;;;;;;15.28;12.95;;;;;;;5.41;83.31;96378.14;1830764;76;21087;-81
2021/10/13 04:43:50;;;;;;;15.58;13.83;;;;;;;5.32;82.75;96376.45;1813066;77;21107;-82
2021/10/13 04:46:16;;;;;;;18.27;15.08;;;;;;;5.25;82.76;96390.89;1760436;78;21513;-82
2021/10/13 04:48:42;;;;;;;21.48;16.85;;;;;;;5.19;82.85;96394.05;1744961;79;21453;-81
2021/10/13 04:51:07;;;;;;;19.02;16.05;;;;;;;5.08;82.76;96391.71;1762556;79;21183;-81
2021/10/13 04:53:33;;;;;;;18.60;15.95;;;;;;;5.02;83.13;96396.95;1777278;79;21107;-81
2021/10/13 04:55:59;;;;;;;19.95;16.27;;;;;;;4.97;83.03;96391.92;1772358;78;21106;-81
2021/10/13 04:58:25;;;;;;;20.65;16.82;;;;;;;4.99;83.27;96396.44;1802470;79;21031;-82
2021/10/13 05:00:51;;;;;;;19.20;15.80;;;;;;;5.01;83.03;96403.53;1780916;78;21045;-81
2021/10/13 05:03:17;;;;;;;21.65;15.75;;;;;;;5.05;83.35;96406.17;1816682;77;21110;-81
2021/10/13 05:05:43;;;;;;;14.40;12.78;;;;;;;5.09;83.35;96412.64;1820246;77;21120;-81
2021/10/13 05:08:09;;;;;;;18.20;14.43;;;;;;;5.02;83.02;96423.19;1795525;78;21194;-81
2021/10/13 05:10:37;;;;;;;19.87;15.53;;;;;;;4.93;82.99;96422.31;1798927;77;21090;-82
2021/10/13 05:13:02;;;;;;;17.25;13.75;;;;;;;4.93;83.34;96428.74;1797423;79;21144;-81
2021/10/13 05:15:28;;;;;;;17.40;14.95;;;;;;;4.92;83.02;96438.71;1794169;78;21205;-81
2021/10/13 05:17:54;;;;;;;18.77;14.95;;;;;;;4.91;83.12;96440.95;1786602;78;21065;-81
2021/10/13 05:20:20;;;;;;;14.98;12.07;;;;;;;4.91;83.12;96445.30;1807957;78;21383;-81
2021/10/13 05:22:45;;;;;;;16.30;13.10;;;;;;;4.95;83.22;96449.20;1787745;78;21126;-81
2021/10/13 05:25:11;;;;;;;17.90;13.55;;;;;;;4.99;83.31;96454.38;1798554;77;21094;-81
2021/10/13 05:27:38;;;;;;;19.95;14.55;;;;;;;5.02;83.30;96458.76;1789704;78;21139;-82
2021/10/13 05:30:04;;;;;;;19.50;13.90;;;;;;;4.97;82.90;96463.54;1794859;78;21462;-81
2021/10/13 05:32:30;;;;;;;18.10;13.22;;;;;;;4.93;82.42;96467.84;1786028;78;21092;-82
2021/10/13 05:34:56;;;;;;;16.20;12.80;;;;;;;4.89;82.34;96469.91;1800804;77;21433;-81
2021/10/13 05:37:22;;;;;;;17.60;12.15;;;;;;;4.90;82.65;96468.95;1794213;78;21174;-81
2021/10/13 05:39:47;;;;;;;19.98;13.70;;;;;;;4.86;81.95;96465.02;1807416;78;21461;-81
2021/10/13 05:42:13;;;;;;;19.00;15.00;;;;;;;4.87;82.03;96466.64;1816745;78;23155;-81
2021/10/13 05:44:39;;;;;;;19.00;14.45;;;;;;;4.89;82.48;96466.52;1789587;78;21199;-81
2021/10/13 05:47:05;;;;;;;21.80;15.60;;;;;;;4.93;82.81;96470.42;1790694;77;21084;-81
2021/10/13 05:49:31;;;;;;;20.92;15.48;;;;;;;4.94;82.89;96472.04;1786581;79;21121;-81
2021/10/13 05:51:57;;;;;;;21.27;16.57;;;;;;;4.97;83.05;96480.76;1814669;77;21480;-81
2021/10/13 05:54:23;;;;;;;26.23;18.05;;;;;;;5.01;83.14;96484.18;1805472;78;21146;-81
2021/10/13 05:56:50;;;;;;;28.83;21.12;;;;;;;5.03;82.93;96485.32;1808895;77;21151;-81
2021/10/13 05:59:17;;;;;;;28.42;21.07;;;;;;;5.05;83.16;96487.30;1825454;77;21112;-81
2021/10/13 06:01:43;;;;;;;28.27;20.12;;;;;;;5.09;83.40;96487.34;1791608;78;21043;-81
2021/10/13 06:04:09;;;;;;;31.37;20.50;;;;;;;5.07;83.23;96499.55;1767639;79;21442;-81
2021/10/13 06:06:35;;;;;;;26.25;18.50;;;;;;;5.07;83.19;96499.55;1799136;77;20992;-81
2021/10/13 06:11:26;;;;;;;24.50;18.27;;;;;;;5.12;83.15;96502.49;1762554;79;21030;-81
2021/10/13 06:13:53;;;;;;;23.77;18.65;;;;;;;5.15;82.80;96506.06;1770190;79;21406;-81
2021/10/13 06:16:22;;;;;;;27.52;20.60;;;;;;;5.12;82.90;96514.89;1794430;77;21049;-81
2021/10/13 06:18:50;;;;;;;23.83;19.85;;;;;;;5.13;83.06;96522.14;1780929;78;21102;-81
2021/10/13 06:21:15;;;;;;;21.00;16.57;;;;;;;5.16;83.19;96519.75;1747731;78;21099;-81
2021/10/13 06:23:41;;;;;;;22.42;17.27;;;;;;;5.11;82.94;96519.72;1779214;78;21133;-81
2021/10/13 06:26:07;;;;;;;22.55;16.07;;;;;;;5.15;82.88;96531.01;1773443;79;21181;-81
2021/10/13 06:28:34;;;;;;;21.75;16.30;;;;;;;5.19;82.87;96522.03;1782146;78;21035;-81
2021/10/13 06:30:59;;;;;;;32.28;22.98;;;;;;;5.20;82.95;96530.09;1775654;78;21051;-81
2021/10/13 06:33:26;;;;;;;31.62;21.60;;;;;;;5.21;83.17;96529.97;1761598;79;21182;-81
2021/10/13 06:35:53;;;;;;;22.95;17.90;;;;;;;5.20;82.97;96537.82;1756450;80;21100;-81
2021/10/13 06:38:18;;;;;;;24.57;17.65;;;;;;;5.13;82.93;96543.56;1787589;79;21476;-81
2021/10/13 06:40:44;;;;;;;18.50;13.70;;;;;;;5.11;83.04;96549.81;1791950;78;21080;-81
2021/10/13 06:45:36;;;;;;;17.48;13.62;;;;;;;5.18;83.17;96559.05;1780210;77;21121;-81
2021/10/13 06:48:03;;;;;;;19.20;13.60;;;;;;;5.20;82.87;96559.72;1747532;78;21146;-81
2021/10/13 06:50:29;;;;;;;17.30;13.03;;;;;;;5.22;83.08;96567.66;1804499;77;21056;-81
2021/10/13 06:52:55;;;;;;;19.95;15.28;;;;;;;5.19;82.74;96571.78;1787490;78;21471;-81
2021/10/13 06:55:21;;;;;;;20.60;14.55;;;;;;;5.10;82.92;96565.74;1784297;78;21429;-81
2021/10/13 06:57:46;;;;;;;24.37;16.52;;;;;;;5.08;82.83;96571.52;1760507;78;21072;-81
2021/10/13 07:00:14;;;;;;;20.97;14.70;;;;;;;5.08;83.03;96575.86;1752321;80;21588;-82
2021/10/13 07:02:40;;;;;;;19.77;14.73;;;;;;;5.07;82.82;96573.77;1746603;81;21139;-81
2021/10/13 07:05:06;;;;;;;26.85;17.82;;;;;;;5.07;83.01;96578.91;1702119;82;21106;-81
2021/10/13 07:07:33;;;;;;;25.70;18.57;;;;;;;5.05;82.75;96574.86;1795204;79;21084;-81
2021/10/13 07:09:59;;;;;;;25.25;17.75;;;;;;;5.02;82.76;96575.94;1791880;79;21130;-81
2021/10/13 07:12:25;;;;;;;28.47;18.15;;;;;;;5.03;82.97;96578.84;1784207;79;21705;-81
2021/10/13 07:14:51;;;;;;;32.93;19.77;;;;;;;5.01;83.09;96578.17;1787653;79;21042;-81
2021/10/13 07:17:16;;;;;;;34.35;23.60;;;;;;;4.96;82.64;96580.38;1780890;79;21510;-81
2021/10/13 07:19:42;;;;;;;33.58;20.90;;;;;;;4.98;83.02;96587.48;1786491;79;21007;-81
2021/10/13 07:22:08;;;;;;;34.27;22.50;;;;;;;5.03;83.17;96579.31;1796971;76;21022;-81
2021/10/13 07:24:34;;;;;;;26.55;19.40;;;;;;;5.11;83.40;96580.24;1808727;76;21113;-81
2021/10/13 07:27:00;;;;;;;50.98;20.23;;;;;;;5.16;83.22;96582.86;1724851;82;21165;-82
2021/10/13 07:29:27;;;;;;;27.98;19.20;;;;;;;5.18;83.20;96584.33;1761634;77;21057;-81
2021/10/13 07:31:54;;;;;;;22.73;17.95;;;;;;;5.20;83.09;96590.62;1723353;80;21174;-81
2021/10/13 07:34:21;;;;;;;28.75;19.23;;;;;;;5.22;83.05;96586.17;1753906;80;21073;-81
2021/10/13 07:36:48;;;;;;;25.32;18.32;;;;;;;5.30;83.18;96589.64;1791156;79;21030;-82
2021/10/13 07:39:13;;;;;;;26.48;17.32;;;;;;;5.39;83.36;96593.94;1811401;77;21528;-81
2021/10/13 07:41:39;;;;;;;24.02;17.70;;;;;;;5.46;83.41;96598.50;1768984;79;21160;-81
2021/10/13 07:44:05;;;;;;;25.43;18.02;;;;;;;5.47;83.19;96603.99;1808022;77;21066;-81
2021/10/13 07:46:31;;;;;;;23.07;16.82;;;;;;;5.46;83.01;96604.95;1781560;79;21536;-81
2021/10/13 07:48:57;;;;;;;24.43;17.80;;;;;;;5.43;82.89;96606.05;1784350;79;21454;-81
2021/10/13 07:51:22;;;;;;;23.22;16.62;;;;;;;5.45;82.96;96605.42;1800882;77;21030;-81
2021/10/13 07:53:48;;;;;;;25.10;17.87;;;;;;;5.49;82.96;96609.81;1797806;77;21002;-81
2021/10/13 07:56:14;;;;;;;24.45;17.52;;;;;;;5.54;82.99;96613.59;1747632;80;21073;-81
2021/10/13 07:58:40;;;;;;;26.70;18.87;;;;;;;5.55;82.87;96610.06;1778295;78;21064;-81
2021/10/13 08:01:06;;;;;;;27.17;18.00;;;;;;;5.52;83.01;96608.22;1803826;77;21093;-81
2021/10/13 08:03:32;;;;;;;29.05;20.32;;;;;;;5.53;83.25;96617.58;1801696;77;21050;-81
2021/10/13 08:05:57;;;;;;;31.87;20.97;;;;;;;5.54;83.14;96619.23;1780701;78;21192;-81
2021/10/13 08:08:23;;;;;;;29.35;20.25;;;;;;;5.41;82.59;96614.41;1797497;77;21414;-81
2021/10/13 08:10:49;;;;;;;31.90;22.50;;;;;;;5.42;82.73;96613.45;1806565;77;21111;-81
2021/10/13 08:13:15;;;;;;;28.60;21.62;;;;;;;5.46;82.78;96618.64;1772188;78;21087;-81
2021/10/13 08:15:41;;;;;;;34.10;24.02;;;;;;;5.50;82.90;96618.69;1788605;79;21516;-81
2021/10/13 08:18:06;;;;;;;33.50;22.95;;;;;;;5.55;83.23;96626.00;1756360;79;22382;-81
2021/10/13 08:20:32;;;;;;;33.85;23.57;;;;;;;5.56;83.24;96622.47;1789231;78;21035;-81
2021/10/13 08:23:00;;;;;;;37.90;26.73;;;;;;;5.59;83.35;96626.85;1753529;78;22008;-81
2021/10/13 08:25:25;;;;;;;30.45;22.27;;;;;;;5.57;82.82;96627.48;1737719;80;21092;-81
2021/10/13 08:27:51;;;;;;;35.58;25.70;;;;;;;5.56;83.03;96634.06;1774585;79;21151;-81
2021/10/13 08:30:17;;;;;;;35.68;25.62;;;;;;;5.60;82.87;96631.53;1756838;79;21185;-81
2021/10/13 08:32:43;;;;;;;34.15;24.47;;;;;;;5.62;83.01;96629.61;1771153;79;21499;-81
2021/10/13 08:35:09;;;;;;;34.55;23.00;;;;;;;5.64;82.76;96630.28;1758502;80;21174;-82
2021/10/13 08:37:36;;;;;;;40.12;25.27;;;;;;;5.59;82.81;96633.77;1759489;79;21071;-81
2021/10/13 08:40:03;;;;;;;39.38;25.77;;;;;;;5.53;82.59;96631.30;1745622;79;21080;-81
2021/10/13 08:42:29;;;;;;;36.58;24.05;;;;;;;5.52;82.94;96636.58;1790848;79;21488;-81
2021/10/13 08:44:56;;;;;;;41.98;30.68;;;;;;;5.55;83.00;96638.41;1766069;78;21465;-81
2021/10/13 08:47:22;;;;;;;45.05;29.10;;;;;;;5.55;82.93;96640.18;1806170;78;21047;-82
2021/10/13 08:49:48;;;;;;;45.67;28.95;;;;;;;5.55;82.72;96638.41;1784660;78;21051;-81
2021/10/13 08:52:14;;;;;;;42.75;28.65;;;;;;;5.52;82.72;96637.86;1798488;78;21134;-81
2021/10/13 08:54:40;;;;;;;46.37;29.45;;;;;;;5.51;82.86;96635.77;1791571;78;21058;-81
2021/10/13 08:57:22;;;;;;;45.33;28.23;;;;;;;5.48;82.99;96636.54;1783254;78;21105;-81
2021/10/13 09:02:15;;;;;;;41.30;26.00;;;;;;;5.58;83.50;96641.98;1776344;77;21129;-81
2021/10/13 09:07:16;;;;;;;37.53;25.15;;;;;;;5.57;83.02;96636.98;1776637;78;21130;-81
2021/10/13 09:09:48;;;;;;;39.98;26.75;;;;;;;5.58;83.55;96634.25;1749127;81;21400;-81
2021/10/13 09:12:14;;;;;;;37.90;25.95;;;;;;;5.64;83.60;96628.98;1770614;77;21073;-81
2021/10/13 09:14:39;;;;;;;35.00;23.87;;;;;;;5.69;83.86;96618.59;1732301;80;21433;-81
2021/10/13 09:17:07;;;;;;;34.10;24.65;;;;;;;5.75;83.98;96627.50;1812944;77;21072;-81
2021/10/13 09:19:50;;;;;;;34.73;24.47;;;;;;;5.84;83.42;96629.19;1796434;78;21107;-82
2021/10/13 09:22:18;;;;;;;36.45;24.43;;;;;;;5.90;83.54;96629.95;1740345;78;21125;-81
2021/10/13 09:24:49;;;;;;;36.93;25.00;;;;;;;5.97;83.94;96628.39;1753572;79;21104;-81
2021/10/13 09:27:30;;;;;;;34.67;23.62;;;;;;;6.01;83.58;96634.88;1764976;78;21073;-81
2021/10/13 09:29:58;;;;;;;38.80;26.77;;;;;;;6.00;83.83;96621.64;1790544;77;21118;-81
2021/10/13 09:32:26;;;;;;;40.30;29.10;;;;;;;6.06;83.45;96640.90;1787953;78;21114;-81
2021/10/13 09:34:51;;;;;;;37.25;26.68;;;;;;;6.01;83.04;96643.09;1810972;77;21418;-81
2021/10/13 09:37:18;;;;;;;32.58;23.00;;;;;;;5.99;82.91;96652.74;1776201;78;21426;-81
2021/10/13 09:39:55;;;;;;;35.25;23.12;;;;;;;5.92;82.83;96655.11;1782492;79;21137;-81
2021/10/13 09:42:22;;;;;;;34.58;25.25;;;;;;;5.90;83.17;96653.64;1796353;78;21548;-82
2021/10/13 09:44:59;;;;;;;36.60;23.70;;;;;;;5.89;83.35;96654.09;1804762;78;21038;-81
2021/10/13 09:47:31;;;;;;;30.45;21.82;;;;;;;5.92;83.53;96659.45;1794974;77;21109;-81
2021/10/13 09:49:57;;;;;;;27.35;19.17;;;;;;;5.90;83.09;96669.11;1761315;79;21106;-81
2021/10/13 09:52:29;;;;;;;21.65;15.70;;;;;;;5.79;82.94;96666.70;1767993;79;21452;-81
2021/10/13 09:55:04;;;;;;;22.40;16.05;;;;;;;5.82;83.20;96672.37;1785399;77;21073;-81
2021/10/13 09:57:33;;;;;;;23.62;16.23;;;;;;;5.84;82.76;96674.80;1771424;79;21129;-81
2021/10/13 10:02:38;;;;;;;12.07;8.45;;;;;;;5.87;82.57;96677.11;1751905;79;21063;-81
2021/10/13 10:07:34;;;;;;;5.35;4.10;;;;;;;5.70;82.59;96676.94;1784453;77;21158;-81
2021/10/13 10:12:56;;;;;;;7.28;4.85;;;;;;;5.62;82.06;96681.17;1760281;78;21085;-81
2021/10/13 10:15:41;;;;;;;5.10;3.98;;;;;;;5.60;82.13;96687.77;1771587;78;21446;-81
2021/10/13 10:20:40;;;;;;;4.60;3.40;;;;;;;5.41;82.31;96691.72;1801823;77;21045;-81
2021/10/13 10:23:12;;;;;;;4.03;3.62;;;;;;;5.24;81.17;96704.05;1804947;78;21008;-81
2021/10/13 10:25:38;;;;;;;2.52;2.20;;;;;;;5.01;81.06;96696.64;1754186;79;21078;-82
2021/10/13 10:28:04;;;;;;;2.72;2.25;;;;;;;4.96;81.41;96689.81;1755772;79;21379;-81
2021/10/13 10:30:29;;;;;;;5.20;3.55;;;;;;;4.96;81.64;96692.39;1785298;78;21057;-81
2021/10/13 10:33:03;;;;;;;4.78;3.83;;;;;;;4.97;81.67;96690.63;1774122;77;21042;-82
2021/10/13 10:35:41;;;;;;;3.50;3.00;;;;;;;4.97;82.12;96686.77;1761239;79;21170;-81
2021/10/13 10:38:08;;;;;;;3.12;2.15;;;;;;;5.00;82.50;96689.06;1770581;79;21137;-81
2021/10/13 10:40:37;;;;;;;3.30;1.80;;;;;;;5.03;82.30;96688.77;1765693;80;21063;-81
2021/10/13 10:43:18;;;;;;;3.22;1.60;;;;;;;5.09;82.53;96692.09;1752468;80;21162;-81
2021/10/13 10:45:58;;;;;;;2.35;1.85;;;;;;;5.18;82.71;96694.30;1781814;77;21061;-81
2021/10/13 10:48:45;;;;;;;3.98;2.33;;;;;;;5.23;82.88;96696.80;1807937;78;21027;-81
2021/10/13 10:51:11;;;;;;;2.60;2.08;;;;;;;5.33;83.31;96696.75;1802061;78;21002;-81
2021/10/13 10:53:44;;;;;;;7.10;5.22;;;;;;;5.40;82.03;96696.54;1776249;78;21444;-81
2021/10/13 10:56:19;;;;;;;4.60;3.42;;;;;;;5.51;82.17;96699.39;1780560;78;21139;-81
2021/10/13 10:59:11;;;;;;;3.33;2.37;;;;;;;5.61;82.63;96707.42;1806023;78;22196;-82
2021/10/13 11:01:38;;;;;;;3.25;2.22;;;;;;;5.70;82.70;96704.48;1802278;78;21173;-81
2021/10/13 11:04:11;;;;;;;3.30;2.55;;;;;;;5.80;82.99;96701.84;1747687;79;21485;-81
2021/10/13 11:06:38;;;;;;;4.03;3.25;;;;;;;5.87;82.62;96710.64;1771809;80;22494;-81
2021/10/13 11:09:07;;;;;;;3.77;2.80;;;;;;;5.91;82.44;96710.23;1776106;79;21097;-81
2021/10/13 11:11:37;;;;;;;4.35;2.77;;;;;;;5.96;82.40;96709.30;1787040;79;21072;-81
2021/10/13 11:14:07;;;;;;;3.47;2.40;;;;;;;6.03;82.48;96699.72;1738942;80;21459;-81
2021/10/13 11:16:41;;;;;;;3.60;2.37;;;;;;;6.05;82.06;96705.54;1776578;79;21068;-81
2021/10/13 11:19:13;;;;;;;3.58;2.25;;;;;;;6.08;81.30;96702.66;1770985;79;21087;-81
2021/10/13 11:21:39;;;;;;;2.33;1.92;;;;;;;6.24;81.66;96695.08;1762235;80;21053;-81
2021/10/13 11:24:05;;;;;;;2.98;2.33;;;;;;;6.37;82.02;96704.57;1759392;79;21083;-81
2021/10/13 11:26:30;;;;;;;4.72;2.50;;;;;;;6.43;80.80;96701.86;1766332;79;21077;-81
2021/10/13 11:28:56;;;;;;;2.92;2.62;;;;;;;6.46;81.10;96694.63;1758857;80;21066;-81
2021/10/13 11:31:22;;;;;;;5.20;2.90;;;;;;;6.54;81.53;96699.07;1749488;82;21149;-81
2021/10/13 11:33:48;;;;;;;3.33;2.72;;;;;;;6.54;81.25;96697.30;1748803;81;21081;-81
2021/10/13 11:36:14;;;;;;;3.95;3.55;;;;;;;6.53;80.66;96695.67;1743556;81;21087;-81
2021/10/13 11:38:40;;;;;;;6.03;4.40;;;;;;;6.55;80.75;96703.27;1762862;79;21060;-81
2021/10/13 11:41:14;;;;;;;3.65;3.02;;;;;;;6.59;80.70;96701.52;1791251;78;21494;-81
2021/10/13 11:43:41;;;;;;;9.10;7.33;;;;;;;6.67;81.62;96695.63;1777619;79;21241;-81
2021/10/13 11:46:07;;;;;;;9.43;7.20;;;;;;;6.71;81.26;96696.14;1756728;79;21506;-81
2021/10/13 11:48:35;;;;;;;8.90;7.25;;;;;;;6.71;81.66;96693.55;1799581;79;21091;-81
2021/10/13 11:51:03;;;;;;;8.68;7.35;;;;;;;6.65;81.32;96696.23;1774061;78;21192;-81
2021/10/13 11:53:31;;;;;;;9.63;7.25;;;;;;;6.60;81.53;96694.59;1797297;78;21114;-81
2021/10/13 11:55:57;;;;;;;10.03;8.60;;;;;;;6.61;81.60;96698.31;1798428;78;21372;-81
2021/10/13 11:58:29;;;;;;;11.65;10.03;;;;;;;6.63;81.37;96695.58;1795099;79;21105;-81
2021/10/13 12:00:55;;;;;;;13.62;11.28;;;;;;;6.65;81.47;96696.23;1789064;78;21114;-81
2021/10/13 12:03:35;;;;;;;12.82;10.18;;;;;;;6.63;80.86;96703.33;1768687;79;22383;-81
2021/10/13 12:06:02;;;;;;;13.40;11.03;;;;;;;6.56;80.88;96695.85;1776372;78;21526;-82
2021/10/13 12:08:35;;;;;;;12.28;9.70;;;;;;;6.53;81.16;96701.32;1758201;80;21182;-82